RKSI/ICN METAR and TAF weather

Enter ICAO airport designator
Station Type Date Time Source
RKSI METAR 2021/09/25 12:30 UTC NOAA

RKSI 251230Z 06005KT CAVOK 22/18 Q1023 NOSIG


Station Type Date Time Source
RKSI Decoded METAR 2021/09/25 12:30 UTC NOAA

Incheon International Airport, Korea, South (RKSI) 37-28N 126-27E
Sep 25, 2021 - 08:30 AM EDT / 2021.09.25 1230 UTC
Wind: from the ENE (060 degrees) at 6 MPH (5 KT):0
Visibility: greater than 7 mile(s):0
Temperature: 71 F (22 C)
Dew Point: 64 F (18 C)
Relative Humidity: 78%
Pressure (altimeter): 30.21 in. Hg (1023 hPa)
ob: RKSI 251230Z 06005KT CAVOK 22/18 Q1023 NOSIG
cycle: 12

Station Type Date Time Source
RKSI TAF 2021/09/25 12:06 UTC NOAA

TAF RKSI 251100Z 2512/2618 12006KT CAVOK TN18/2521Z TX25/2606Z
BECMG 2517/2518 06006KT
BECMG 2602/2603 15006KT
BECMG 2604/2605 28006KT
BECMG 2612/2613 12006KT

Example: see airport list